sensor_id;sensor_type;location;lat;lon;timestamp;temperature;humidity
68439;SHT31;55421;51.600;5.718;2022-09-21T00:03:52;12.71;75.83
68439;SHT31;55421;51.600;5.718;2022-09-21T00:06:26;12.68;75.84
68439;SHT31;55421;51.600;5.718;2022-09-21T00:08:55;12.64;75.95
68439;SHT31;55421;51.600;5.718;2022-09-21T00:11:23;12.60;76.11
68439;SHT31;55421;51.600;5.718;2022-09-21T00:14:02;12.58;76.20
68439;SHT31;55421;51.600;5.718;2022-09-21T00:16:35;12.59;76.20
68439;SHT31;55421;51.600;5.718;2022-09-21T00:19:02;12.59;76.20
68439;SHT31;55421;51.600;5.718;2022-09-21T00:21:29;12.61;76.20
68439;SHT31;55421;51.600;5.718;2022-09-21T00:23:56;12.64;76.20
68439;SHT31;55421;51.600;5.718;2022-09-21T00:26:24;12.64;76.21
68439;SHT31;55421;51.600;5.718;2022-09-21T00:28:55;12.63;76.20
68439;SHT31;55421;51.600;5.718;2022-09-21T00:31:26;12.61;76.21
68439;SHT31;55421;51.600;5.718;2022-09-21T00:33:54;12.59;76.22
68439;SHT31;55421;51.600;5.718;2022-09-21T00:36:21;12.60;76.36
68439;SHT31;55421;51.600;5.718;2022-09-21T00:38:53;12.64;76.38
68439;SHT31;55421;51.600;5.718;2022-09-21T00:41:26;12.64;76.15
68439;SHT31;55421;51.600;5.718;2022-09-21T00:47:14;12.58;76.18
68439;SHT31;55421;51.600;5.718;2022-09-21T00:50:07;12.53;76.20
68439;SHT31;55421;51.600;5.718;2022-09-21T00:52:40;12.50;76.13
68439;SHT31;55421;51.600;5.718;2022-09-21T00:55:19;12.49;76.00
68439;SHT31;55421;51.600;5.718;2022-09-21T00:57:54;12.47;76.06
68439;SHT31;55421;51.600;5.718;2022-09-21T01:00:28;12.48;76.17
68439;SHT31;55421;51.600;5.718;2022-09-21T01:02:55;12.49;76.12
68439;SHT31;55421;51.600;5.718;2022-09-21T01:05:26;12.49;76.11
68439;SHT31;55421;51.600;5.718;2022-09-21T01:07:54;12.48;76.03
68439;SHT31;55421;51.600;5.718;2022-09-21T01:10:27;12.47;75.94
68439;SHT31;55421;51.600;5.718;2022-09-21T01:30:59;12.34;75.94
68439;SHT31;55421;51.600;5.718;2022-09-21T01:33:32;12.32;75.81
68439;SHT31;55421;51.600;5.718;2022-09-21T01:36:10;12.30;76.04
68439;SHT31;55421;51.600;5.718;2022-09-21T01:38:43;12.28;76.19
68439;SHT31;55421;51.600;5.718;2022-09-21T01:41:18;12.24;76.20
68439;SHT31;55421;51.600;5.718;2022-09-21T01:43:52;12.22;76.19
68439;SHT31;55421;51.600;5.718;2022-09-21T01:46:25;12.17;75.95
68439;SHT31;55421;51.600;5.718;2022-09-21T01:48:58;12.10;76.04
68439;SHT31;55421;51.600;5.718;2022-09-21T01:51:33;12.03;76.30
68439;SHT31;55421;51.600;5.718;2022-09-21T01:54:10;11.96;76.40
68439;SHT31;55421;51.600;5.718;2022-09-21T01:57:04;11.87;76.40
68439;SHT31;55421;51.600;5.718;2022-09-21T01:59:55;11.79;76.53
68439;SHT31;55421;51.600;5.718;2022-09-21T02:05:04;11.74;76.60
68439;SHT31;55421;51.600;5.718;2022-09-21T02:07:32;11.72;76.79
68439;SHT31;55421;51.600;5.718;2022-09-21T02:10:00;11.71;76.56
68439;SHT31;55421;51.600;5.718;2022-09-21T02:12:32;11.66;76.41
68439;SHT31;55421;51.600;5.718;2022-09-21T02:14:59;11.63;76.59
68439;SHT31;55421;51.600;5.718;2022-09-21T02:23:05;11.66;76.80
68439;SHT31;55421;51.600;5.718;2022-09-21T02:25:49;11.64;76.50
68439;SHT31;55421;51.600;5.718;2022-09-21T02:30:52;11.51;76.31
68439;SHT31;55421;51.600;5.718;2022-09-21T02:33:30;11.45;76.40
68439;SHT31;55421;51.600;5.718;2022-09-21T02:36:11;11.43;76.62
68439;SHT31;55421;51.600;5.718;2022-09-21T02:39:02;11.39;76.51
68439;SHT31;55421;51.600;5.718;2022-09-21T02:44:43;11.26;76.63
68439;SHT31;55421;51.600;5.718;2022-09-21T02:47:18;11.20;76.63
68439;SHT31;55421;51.600;5.718;2022-09-21T02:49:55;11.17;76.88
68439;SHT31;55421;51.600;5.718;2022-09-21T02:52:30;11.16;77.09
68439;SHT31;55421;51.600;5.718;2022-09-21T02:54:59;11.17;77.10
68439;SHT31;55421;51.600;5.718;2022-09-21T02:57:28;11.18;77.10
68439;SHT31;55421;51.600;5.718;2022-09-21T02:59:56;11.16;77.03
68439;SHT31;55421;51.600;5.718;2022-09-21T03:02:22;11.11;76.93
68439;SHT31;55421;51.600;5.718;2022-09-21T03:04:49;11.08;76.90
68439;SHT31;55421;51.600;5.718;2022-09-21T03:07:16;11.04;76.90
68439;SHT31;55421;51.600;5.718;2022-09-21T03:09:43;11.03;76.90
68439;SHT31;55421;51.600;5.718;2022-09-21T03:12:09;11.01;77.00
68439;SHT31;55421;51.600;5.718;2022-09-21T03:14:36;10.99;77.09
68439;SHT31;55421;51.600;5.718;2022-09-21T03:17:02;10.98;77.11
68439;SHT31;55421;51.600;5.718;2022-09-21T03:19:29;10.95;77.14
68439;SHT31;55421;51.600;5.718;2022-09-21T03:21:56;10.94;77.14
68439;SHT31;55421;51.600;5.718;2022-09-21T03:24:22;10.89;77.10
68439;SHT31;55421;51.600;5.718;2022-09-21T03:27:07;10.86;77.29
68439;SHT31;55421;51.600;5.718;2022-09-21T03:29:34;10.86;77.26
68439;SHT31;55421;51.600;5.718;2022-09-21T03:32:00;10.86;77.22
68439;SHT31;55421;51.600;5.718;2022-09-21T03:34:27;10.84;77.32
68439;SHT31;55421;51.600;5.718;2022-09-21T03:36:53;10.81;77.32
68439;SHT31;55421;51.600;5.718;2022-09-21T03:39:20;10.77;77.40
68439;SHT31;55421;51.600;5.718;2022-09-21T03:41:46;10.74;77.50
68439;SHT31;55421;51.600;5.718;2022-09-21T03:44:13;10.71;77.50
68439;SHT31;55421;51.600;5.718;2022-09-21T03:46:42;10.69;77.49
68439;SHT31;55421;51.600;5.718;2022-09-21T03:49:09;10.69;77.48
68439;SHT31;55421;51.600;5.718;2022-09-21T03:51:35;10.68;77.45
68439;SHT31;55421;51.600;5.718;2022-09-21T03:54:03;10.68;77.50
68439;SHT31;55421;51.600;5.718;2022-09-21T03:56:29;10.69;77.54
68439;SHT31;55421;51.600;5.718;2022-09-21T03:58:56;10.68;77.49
68439;SHT31;55421;51.600;5.718;2022-09-21T04:01:22;10.66;77.34
68439;SHT31;55421;51.600;5.718;2022-09-21T04:03:49;10.65;77.38
68439;SHT31;55421;51.600;5.718;2022-09-21T04:06:15;10.64;77.28
68439;SHT31;55421;51.600;5.718;2022-09-21T04:08:42;10.59;77.10
68439;SHT31;55421;51.600;5.718;2022-09-21T04:11:12;10.56;77.29
68439;SHT31;55421;51.600;5.718;2022-09-21T04:13:42;10.56;77.36
68439;SHT31;55421;51.600;5.718;2022-09-21T04:16:09;10.54;77.30
68439;SHT31;55421;51.600;5.718;2022-09-21T04:18:36;10.50;77.24
68439;SHT31;55421;51.600;5.718;2022-09-21T04:21:04;10.46;77.35
68439;SHT31;55421;51.600;5.718;2022-09-21T04:23:31;10.42;77.24
68439;SHT31;55421;51.600;5.718;2022-09-21T04:25:58;10.37;77.21
68439;SHT31;55421;51.600;5.718;2022-09-21T04:28:24;10.37;77.31
68439;SHT31;55421;51.600;5.718;2022-09-21T04:30:52;10.35;77.25
68439;SHT31;55421;51.600;5.718;2022-09-21T04:33:19;10.38;77.42
68439;SHT31;55421;51.600;5.718;2022-09-21T04:35:55;10.41;77.40
68439;SHT31;55421;51.600;5.718;2022-09-21T04:38:21;10.42;77.31
68439;SHT31;55421;51.600;5.718;2022-09-21T04:40:55;10.43;77.28
68439;SHT31;55421;51.600;5.718;2022-09-21T04:43:23;10.39;77.13
68439;SHT31;55421;51.600;5.718;2022-09-21T04:45:51;10.35;77.17
68439;SHT31;55421;51.600;5.718;2022-09-21T04:48:17;10.31;77.30
68439;SHT31;55421;51.600;5.718;2022-09-21T04:50:47;10.28;77.37
68439;SHT31;55421;51.600;5.718;2022-09-21T04:53:14;10.26;77.40
68439;SHT31;55421;51.600;5.718;2022-09-21T04:55:41;10.21;77.47
68439;SHT31;55421;51.600;5.718;2022-09-21T04:58:07;10.19;77.43
68439;SHT31;55421;51.600;5.718;2022-09-21T05:00:33;10.16;77.31
68439;SHT31;55421;51.600;5.718;2022-09-21T05:03:00;10.14;77.30
68439;SHT31;55421;51.600;5.718;2022-09-21T05:05:26;10.15;77.31
68439;SHT31;55421;51.600;5.718;2022-09-21T05:07:53;10.16;77.32
68439;SHT31;55421;51.600;5.718;2022-09-21T05:10:21;10.15;77.11
68439;SHT31;55421;51.600;5.718;2022-09-21T05:12:47;10.12;77.03
68439;SHT31;55421;51.600;5.718;2022-09-21T05:15:14;10.07;77.14
68439;SHT31;55421;51.600;5.718;2022-09-21T05:17:41;10.04;77.28
68439;SHT31;55421;51.600;5.718;2022-09-21T05:20:08;10.04;77.28
68439;SHT31;55421;51.600;5.718;2022-09-21T05:22:35;10.03;77.24
68439;SHT31;55421;51.600;5.718;2022-09-21T05:25:02;10.05;77.40
68439;SHT31;55421;51.600;5.718;2022-09-21T05:27:29;10.08;77.32
68439;SHT31;55421;51.600;5.718;2022-09-21T05:29:55;10.08;77.25
68439;SHT31;55421;51.600;5.718;2022-09-21T05:32:23;10.07;77.20
68439;SHT31;55421;51.600;5.718;2022-09-21T05:37:56;10.05;76.97
68439;SHT31;55421;51.600;5.718;2022-09-21T05:40:29;10.05;76.96
68439;SHT31;55421;51.600;5.718;2022-09-21T05:42:56;10.05;77.05
68439;SHT31;55421;51.600;5.718;2022-09-21T05:45:23;10.06;77.02
68439;SHT31;55421;51.600;5.718;2022-09-21T05:51:19;10.02;76.90
68439;SHT31;55421;51.600;5.718;2022-09-21T05:54:20;10.03;76.91
68439;SHT31;55421;51.600;5.718;2022-09-21T05:57:42;10.11;77.00
68439;SHT31;55421;51.600;5.718;2022-09-21T06:00:21;10.17;77.01
68439;SHT31;55421;51.600;5.718;2022-09-21T06:05:55;10.31;76.96
68439;SHT31;55421;51.600;5.718;2022-09-21T06:08:23;10.34;76.90
68439;SHT31;55421;51.600;5.718;2022-09-21T06:10:52;10.38;76.93
68439;SHT31;55421;51.600;5.718;2022-09-21T06:13:19;10.45;77.02
68439;SHT31;55421;51.600;5.718;2022-09-21T06:15:46;10.52;77.16
68439;SHT31;55421;51.600;5.718;2022-09-21T06:18:12;10.57;77.16
68439;SHT31;55421;51.600;5.718;2022-09-21T06:20:39;10.63;77.22
68439;SHT31;55421;51.600;5.718;2022-09-21T06:23:06;10.70;77.30
68439;SHT31;55421;51.600;5.718;2022-09-21T06:25:36;10.77;77.26
68439;SHT31;55421;51.600;5.718;2022-09-21T06:28:04;10.84;77.25
68439;SHT31;55421;51.600;5.718;2022-09-21T06:30:35;10.94;77.29
68439;SHT31;55421;51.600;5.718;2022-09-21T06:33:03;11.02;77.31
68439;SHT31;55421;51.600;5.718;2022-09-21T06:35:32;11.11;77.36
68439;SHT31;55421;51.600;5.718;2022-09-21T06:38:01;11.18;77.35
68439;SHT31;55421;51.600;5.718;2022-09-21T06:40:32;11.23;77.31
68439;SHT31;55421;51.600;5.718;2022-09-21T06:43:02;11.27;77.27
68439;SHT31;55421;51.600;5.718;2022-09-21T06:45:29;11.33;77.24
68439;SHT31;55421;51.600;5.718;2022-09-21T06:47:56;11.39;77.28
68439;SHT31;55421;51.600;5.718;2022-09-21T06:50:24;11.46;77.30
68439;SHT31;55421;51.600;5.718;2022-09-21T06:52:50;11.52;77.30
68439;SHT31;55421;51.600;5.718;2022-09-21T06:55:17;11.56;77.30
68439;SHT31;55421;51.600;5.718;2022-09-21T06:57:44;11.60;77.30
68439;SHT31;55421;51.600;5.718;2022-09-21T07:00:12;11.64;77.35
68439;SHT31;55421;51.600;5.718;2022-09-21T07:02:42;11.70;77.40
68439;SHT31;55421;51.600;5.718;2022-09-21T07:05:10;11.79;77.50
68439;SHT31;55421;51.600;5.718;2022-09-21T07:07:37;11.88;77.51
68439;SHT31;55421;51.600;5.718;2022-09-21T07:10:05;11.95;77.59
68439;SHT31;55421;51.600;5.718;2022-09-21T07:12:35;12.02;77.60
68439;SHT31;55421;51.600;5.718;2022-09-21T07:15:02;12.07;77.61
68439;SHT31;55421;51.600;5.718;2022-09-21T07:17:31;12.14;77.70
68439;SHT31;55421;51.600;5.718;2022-09-21T07:20:04;12.22;77.73
68439;SHT31;55421;51.600;5.718;2022-09-21T07:22:33;12.32;77.79
68439;SHT31;55421;51.600;5.718;2022-09-21T07:25:00;12.39;77.62
68439;SHT31;55421;51.600;5.718;2022-09-21T07:27:28;12.43;77.48
68439;SHT31;55421;51.600;5.718;2022-09-21T07:29:57;12.47;77.43
68439;SHT31;55421;51.600;5.718;2022-09-21T07:32:24;12.51;77.40
68439;SHT31;55421;51.600;5.718;2022-09-21T07:34:53;12.59;77.36
68439;SHT31;55421;51.600;5.718;2022-09-21T07:37:22;12.65;77.37
68439;SHT31;55421;51.600;5.718;2022-09-21T07:39:50;12.74;77.30
68439;SHT31;55421;51.600;5.718;2022-09-21T07:42:18;12.81;77.30
68439;SHT31;55421;51.600;5.718;2022-09-21T07:44:47;12.90;77.20
68439;SHT31;55421;51.600;5.718;2022-09-21T07:47:14;12.99;77.07
68439;SHT31;55421;51.600;5.718;2022-09-21T07:49:42;13.08;76.91
68439;SHT31;55421;51.600;5.718;2022-09-21T07:52:08;13.13;76.72
68439;SHT31;55421;51.600;5.718;2022-09-21T07:54:34;13.17;76.66
68439;SHT31;55421;51.600;5.718;2022-09-21T07:57:02;13.23;76.55
68439;SHT31;55421;51.600;5.718;2022-09-21T07:59:47;13.30;76.39
68439;SHT31;55421;51.600;5.718;2022-09-21T08:02:14;13.36;76.25
68439;SHT31;55421;51.600;5.718;2022-09-21T08:04:41;13.42;76.11
68439;SHT31;55421;51.600;5.718;2022-09-21T08:07:07;13.48;75.91
68439;SHT31;55421;51.600;5.718;2022-09-21T08:09:34;13.53;75.79
68439;SHT31;55421;51.600;5.718;2022-09-21T08:12:00;13.58;75.72
68439;SHT31;55421;51.600;5.718;2022-09-21T08:14:27;13.69;75.68
68439;SHT31;55421;51.600;5.718;2022-09-21T08:16:54;13.80;75.51
68439;SHT31;55421;51.600;5.718;2022-09-21T08:19:20;13.86;75.21
68439;SHT31;55421;51.600;5.718;2022-09-21T08:21:50;13.94;74.96
68439;SHT31;55421;51.600;5.718;2022-09-21T08:24:18;14.00;74.80
68439;SHT31;55421;51.600;5.718;2022-09-21T08:26:45;14.07;74.85
68439;SHT31;55421;51.600;5.718;2022-09-21T08:29:11;14.15;74.72
68439;SHT31;55421;51.600;5.718;2022-09-21T08:31:41;14.22;74.70
68439;SHT31;55421;51.600;5.718;2022-09-21T08:34:08;14.30;74.64
68439;SHT31;55421;51.600;5.718;2022-09-21T08:36:34;14.36;73.89
68439;SHT31;55421;51.600;5.718;2022-09-21T08:39:01;14.40;73.33
68439;SHT31;55421;51.600;5.718;2022-09-21T08:41:40;14.46;73.02
68439;SHT31;55421;51.600;5.718;2022-09-21T08:44:39;14.52;72.73
68439;SHT31;55421;51.600;5.718;2022-09-21T08:49:54;14.61;72.49
68439;SHT31;55421;51.600;5.718;2022-09-21T08:52:24;14.67;72.30
68439;SHT31;55421;51.600;5.718;2022-09-21T08:57:50;14.96;71.55
68439;SHT31;55421;51.600;5.718;2022-09-21T09:00:18;15.08;71.11
68439;SHT31;55421;51.600;5.718;2022-09-21T09:05:48;15.19;69.73
68439;SHT31;55421;51.600;5.718;2022-09-21T09:26:01;15.53;66.93
68439;SHT31;55421;51.600;5.718;2022-09-21T09:28:35;15.57;65.96
68439;SHT31;55421;51.600;5.718;2022-09-21T09:31:11;15.64;65.92
68439;SHT31;55421;51.600;5.718;2022-09-21T09:36:31;15.74;65.54
68439;SHT31;55421;51.600;5.718;2022-09-21T09:39:02;15.77;64.96
68439;SHT31;55421;51.600;5.718;2022-09-21T09:44:38;15.88;65.07
68439;SHT31;55421;51.600;5.718;2022-09-21T09:47:32;15.93;64.61
68439;SHT31;55421;51.600;5.718;2022-09-21T09:50:39;15.96;64.05
68439;SHT31;55421;51.600;5.718;2022-09-21T09:53:23;15.99;64.10
68439;SHT31;55421;51.600;5.718;2022-09-21T09:55:52;16.05;64.06
68439;SHT31;55421;51.600;5.718;2022-09-21T09:58:23;16.12;63.94
68439;SHT31;55421;51.600;5.718;2022-09-21T10:01:02;16.21;63.70
68439;SHT31;55421;51.600;5.718;2022-09-21T10:03:29;16.30;63.63
68439;SHT31;55421;51.600;5.718;2022-09-21T10:05:56;16.40;63.24
68439;SHT31;55421;51.600;5.718;2022-09-21T10:11:10;16.29;62.99
68439;SHT31;55421;51.600;5.718;2022-09-21T10:13:40;16.16;62.87
68439;SHT31;55421;51.600;5.718;2022-09-21T10:16:12;16.06;63.27
68439;SHT31;55421;51.600;5.718;2022-09-21T10:18:52;16.02;63.25
68439;SHT31;55421;51.600;5.718;2022-09-21T10:21:32;15.95;63.00
68439;SHT31;55421;51.600;5.718;2022-09-21T10:24:21;15.86;62.88
68439;SHT31;55421;51.600;5.718;2022-09-21T10:27:14;15.77;62.57
68439;SHT31;55421;51.600;5.718;2022-09-21T10:29:46;15.72;62.52
68439;SHT31;55421;51.600;5.718;2022-09-21T10:35:27;15.69;62.41
68439;SHT31;55421;51.600;5.718;2022-09-21T10:37:36;15.76;61.94
68439;SHT31;55421;51.600;5.718;2022-09-21T10:42:45;16.07;61.74
68439;SHT31;55421;51.600;5.718;2022-09-21T10:45:16;16.24;61.29
68439;SHT31;55421;51.600;5.718;2022-09-21T10:47:46;16.36;60.77
68439;SHT31;55421;51.600;5.718;2022-09-21T10:50:25;16.50;60.41
68439;SHT31;55421;51.600;5.718;2022-09-21T10:58:33;16.71;59.38
68439;SHT31;55421;51.600;5.718;2022-09-21T11:01:34;16.65;59.57
68439;SHT31;55421;51.600;5.718;2022-09-21T11:06:51;16.62;59.89
68439;SHT31;55421;51.600;5.718;2022-09-21T11:09:33;16.58;59.74
68439;SHT31;55421;51.600;5.718;2022-09-21T11:15:19;16.46;60.14
68439;SHT31;55421;51.600;5.718;2022-09-21T11:17:57;16.44;60.14
68439;SHT31;55421;51.600;5.718;2022-09-21T11:20:38;16.48;60.08
68439;SHT31;55421;51.600;5.718;2022-09-21T11:26:06;16.85;59.33
68439;SHT31;55421;51.600;5.718;2022-09-21T11:29:03;17.02;58.80
68439;SHT31;55421;51.600;5.718;2022-09-21T11:34:25;17.21;58.61
68439;SHT31;55421;51.600;5.718;2022-09-21T11:37:37;17.24;58.29
68439;SHT31;55421;51.600;5.718;2022-09-21T11:57:32;17.53;57.13
68439;SHT31;55421;51.600;5.718;2022-09-21T12:00:14;17.50;56.40
68439;SHT31;55421;51.600;5.718;2022-09-21T12:02:49;17.51;56.10
68439;SHT31;55421;51.600;5.718;2022-09-21T12:05:36;17.50;55.94
68439;SHT31;55421;51.600;5.718;2022-09-21T12:13:37;17.42;55.35
68439;SHT31;55421;51.600;5.718;2022-09-21T12:16:18;17.41;55.01
68439;SHT31;55421;51.600;5.718;2022-09-21T12:19:20;17.33;54.94
68439;SHT31;55421;51.600;5.718;2022-09-21T12:22:10;17.23;55.02
68439;SHT31;55421;51.600;5.718;2022-09-21T12:24:43;17.19;55.18
68439;SHT31;55421;51.600;5.718;2022-09-21T12:27:23;17.24;55.35
68439;SHT31;55421;51.600;5.718;2022-09-21T12:29:54;17.30;54.99
68439;SHT31;55421;51.600;5.718;2022-09-21T12:38:29;17.25;54.29
68439;SHT31;55421;51.600;5.718;2022-09-21T12:41:15;17.26;54.66
68439;SHT31;55421;51.600;5.718;2022-09-21T12:44:16;17.27;54.78
68439;SHT31;55421;51.600;5.718;2022-09-21T12:50:15;17.28;54.91
68439;SHT31;55421;51.600;5.718;2022-09-21T12:52:49;17.28;54.77
68439;SHT31;55421;51.600;5.718;2022-09-21T12:57:59;17.25;54.38
68439;SHT31;55421;51.600;5.718;2022-09-21T13:01:00;17.25;54.25
68439;SHT31;55421;51.600;5.718;2022-09-21T13:03:36;17.26;54.04
68439;SHT31;55421;51.600;5.718;2022-09-21T13:09:04;17.30;53.80
68439;SHT31;55421;51.600;5.718;2022-09-21T13:11:47;17.34;53.84
68439;SHT31;55421;51.600;5.718;2022-09-21T13:14:25;17.39;53.39
68439;SHT31;55421;51.600;5.718;2022-09-21T13:16:59;17.40;53.77
68439;SHT31;55421;51.600;5.718;2022-09-21T13:19:30;17.45;54.04
68439;SHT31;55421;51.600;5.718;2022-09-21T13:24:39;17.56;54.36
68439;SHT31;55421;51.600;5.718;2022-09-21T13:27:08;17.56;54.05
68439;SHT31;55421;51.600;5.718;2022-09-21T13:29:36;17.54;53.93
68439;SHT31;55421;51.600;5.718;2022-09-21T13:34:37;17.48;54.40
68439;SHT31;55421;51.600;5.718;2022-09-21T13:44:53;17.46;54.09
68439;SHT31;55421;51.600;5.718;2022-09-21T13:47:28;17.48;53.88
68439;SHT31;55421;51.600;5.718;2022-09-21T13:50:00;17.49;53.68
68439;SHT31;55421;51.600;5.718;2022-09-21T13:53:00;17.47;53.49
68439;SHT31;55421;51.600;5.718;2022-09-21T13:55:40;17.47;53.65
68439;SHT31;55421;51.600;5.718;2022-09-21T13:58:23;17.46;53.49
68439;SHT31;55421;51.600;5.718;2022-09-21T14:00:58;17.46;53.39
68439;SHT31;55421;51.600;5.718;2022-09-21T14:08:38;17.47;53.29
68439;SHT31;55421;51.600;5.718;2022-09-21T14:11:22;17.49;52.95
68439;SHT31;55421;51.600;5.718;2022-09-21T14:16:54;17.48;52.45
68439;SHT31;55421;51.600;5.718;2022-09-21T14:27:17;17.42;52.90
68439;SHT31;55421;51.600;5.718;2022-09-21T14:29:57;17.34;53.12
68439;SHT31;55421;51.600;5.718;2022-09-21T14:32:40;17.27;53.65
68439;SHT31;55421;51.600;5.718;2022-09-21T14:35:15;17.24;53.63
68439;SHT31;55421;51.600;5.718;2022-09-21T14:37:49;17.18;53.49
68439;SHT31;55421;51.600;5.718;2022-09-21T14:40:24;17.12;53.64
68439;SHT31;55421;51.600;5.718;2022-09-21T14:42:56;17.07;53.97
68439;SHT31;55421;51.600;5.718;2022-09-21T14:45:40;17.03;54.23
68439;SHT31;55421;51.600;5.718;2022-09-21T15:00:37;16.96;53.72
68439;SHT31;55421;51.600;5.718;2022-09-21T15:06:11;17.00;53.84
68439;SHT31;55421;51.600;5.718;2022-09-21T15:12:44;17.02;54.08
68439;SHT31;55421;51.600;5.718;2022-09-21T15:15:31;17.03;54.32
68439;SHT31;55421;51.600;5.718;2022-09-21T15:18:11;17.03;54.16
68439;SHT31;55421;51.600;5.718;2022-09-21T15:20:58;17.01;54.44
68439;SHT31;55421;51.600;5.718;2022-09-21T15:23:38;16.99;54.63
68439;SHT31;55421;51.600;5.718;2022-09-21T15:26:09;16.98;54.58
68439;SHT31;55421;51.600;5.718;2022-09-21T15:28:45;16.96;54.70
68439;SHT31;55421;51.600;5.718;2022-09-21T15:31:15;16.95;54.85
68439;SHT31;55421;51.600;5.718;2022-09-21T15:33:43;16.94;54.56
68439;SHT31;55421;51.600;5.718;2022-09-21T15:36:23;16.93;54.04
68439;SHT31;55421;51.600;5.718;2022-09-21T15:38:53;16.92;54.14
68439;SHT31;55421;51.600;5.718;2022-09-21T15:44:05;16.91;54.19
68439;SHT31;55421;51.600;5.718;2022-09-21T15:46:40;16.90;54.42
68439;SHT31;55421;51.600;5.718;2022-09-21T15:49:12;16.90;54.69
68439;SHT31;55421;51.600;5.718;2022-09-21T15:51:42;16.89;54.43
68439;SHT31;55421;51.600;5.718;2022-09-21T15:57:31;16.88;54.65
68439;SHT31;55421;51.600;5.718;2022-09-21T16:00:06;16.86;54.92
68439;SHT31;55421;51.600;5.718;2022-09-21T16:02:57;16.84;55.35
68439;SHT31;55421;51.600;5.718;2022-09-21T16:05:33;16.81;55.58
68439;SHT31;55421;51.600;5.718;2022-09-21T16:08:17;16.80;55.43
68439;SHT31;55421;51.600;5.718;2022-09-21T16:10:47;16.79;55.49
68439;SHT31;55421;51.600;5.718;2022-09-21T16:13:24;16.75;55.38
68439;SHT31;55421;51.600;5.718;2022-09-21T16:16:12;16.72;55.55
68439;SHT31;55421;51.600;5.718;2022-09-21T16:18:41;16.70;55.65
68439;SHT31;55421;51.600;5.718;2022-09-21T16:21:29;16.69;55.73
68439;SHT31;55421;51.600;5.718;2022-09-21T16:24:08;16.66;55.78
68439;SHT31;55421;51.600;5.718;2022-09-21T16:26:54;16.62;55.71
68439;SHT31;55421;51.600;5.718;2022-09-21T16:29:24;16.59;55.94
68439;SHT31;55421;51.600;5.718;2022-09-21T16:34:49;16.55;56.24
68439;SHT31;55421;51.600;5.718;2022-09-21T16:39:54;16.49;56.78
68439;SHT31;55421;51.600;5.718;2022-09-21T16:42:23;16.45;57.02
68439;SHT31;55421;51.600;5.718;2022-09-21T16:44:59;16.42;57.26
68439;SHT31;55421;51.600;5.718;2022-09-21T16:47:31;16.37;57.40
68439;SHT31;55421;51.600;5.718;2022-09-21T16:50:05;16.33;57.72
68439;SHT31;55421;51.600;5.718;2022-09-21T16:52:37;16.28;57.88
68439;SHT31;55421;51.600;5.718;2022-09-21T16:55:04;16.24;58.24
68439;SHT31;55421;51.600;5.718;2022-09-21T16:57:31;16.18;58.82
68439;SHT31;55421;51.600;5.718;2022-09-21T17:00:00;16.13;59.62
68439;SHT31;55421;51.600;5.718;2022-09-21T17:02:27;16.08;59.21
68439;SHT31;55421;51.600;5.718;2022-09-21T17:04:54;16.04;59.04
68439;SHT31;55421;51.600;5.718;2022-09-21T17:07:20;15.98;59.01
68439;SHT31;55421;51.600;5.718;2022-09-21T17:09:47;15.93;59.35
68439;SHT31;55421;51.600;5.718;2022-09-21T17:12:14;15.87;59.37
68439;SHT31;55421;51.600;5.718;2022-09-21T17:14:43;15.81;59.17
68439;SHT31;55421;51.600;5.718;2022-09-21T17:17:16;15.75;59.33
68439;SHT31;55421;51.600;5.718;2022-09-21T17:19:47;15.69;59.52
68439;SHT31;55421;51.600;5.718;2022-09-21T17:22:16;15.61;59.66
68439;SHT31;55421;51.600;5.718;2022-09-21T17:24:44;15.55;59.94
68439;SHT31;55421;51.600;5.718;2022-09-21T17:27:13;15.47;60.44
68439;SHT31;55421;51.600;5.718;2022-09-21T17:29:43;15.41;60.96
68439;SHT31;55421;51.600;5.718;2022-09-21T17:32:14;15.35;61.51
68439;SHT31;55421;51.600;5.718;2022-09-21T17:37:41;15.23;62.38
68439;SHT31;55421;51.600;5.718;2022-09-21T17:40:07;15.19;62.69
68439;SHT31;55421;51.600;5.718;2022-09-21T17:42:37;15.14;62.89
68439;SHT31;55421;51.600;5.718;2022-09-21T17:48:01;15.07;63.19
68439;SHT31;55421;51.600;5.718;2022-09-21T17:50:28;15.03;63.60
68439;SHT31;55421;51.600;5.718;2022-09-21T17:52:55;14.99;63.77
68439;SHT31;55421;51.600;5.718;2022-09-21T17:55:53;14.96;64.19
68439;SHT31;55421;51.600;5.718;2022-09-21T17:58:33;14.91;64.51
68439;SHT31;55421;51.600;5.718;2022-09-21T18:01:32;14.86;64.75
68439;SHT31;55421;51.600;5.718;2022-09-21T18:04:02;14.80;65.01
68439;SHT31;55421;51.600;5.718;2022-09-21T18:06:29;14.74;64.97
68439;SHT31;55421;51.600;5.718;2022-09-21T18:08:56;14.69;65.20
68439;SHT31;55421;51.600;5.718;2022-09-21T18:16:26;14.53;65.63
68439;SHT31;55421;51.600;5.718;2022-09-21T18:22:21;14.44;65.56
68439;SHT31;55421;51.600;5.718;2022-09-21T18:25:11;14.37;65.87
68439;SHT31;55421;51.600;5.718;2022-09-21T18:27:41;14.34;66.18
68439;SHT31;55421;51.600;5.718;2022-09-21T18:30:13;14.35;66.44
68439;SHT31;55421;51.600;5.718;2022-09-21T18:32:46;14.34;66.61
68439;SHT31;55421;51.600;5.718;2022-09-21T18:35:38;14.36;66.75
68439;SHT31;55421;51.600;5.718;2022-09-21T18:38:26;14.35;66.56
68439;SHT31;55421;51.600;5.718;2022-09-21T18:44:13;14.28;66.04
68439;SHT31;55421;51.600;5.718;2022-09-21T18:47:06;14.20;66.48
68439;SHT31;55421;51.600;5.718;2022-09-21T18:52:45;14.12;67.30
68439;SHT31;55421;51.600;5.718;2022-09-21T18:55:26;14.04;67.59
68439;SHT31;55421;51.600;5.718;2022-09-21T18:57:58;13.96;67.80
68439;SHT31;55421;51.600;5.718;2022-09-21T19:00:26;13.94;67.72
68439;SHT31;55421;51.600;5.718;2022-09-21T19:03:04;13.93;67.74
68439;SHT31;55421;51.600;5.718;2022-09-21T19:05:33;13.88;67.94
68439;SHT31;55421;51.600;5.718;2022-09-21T19:08:20;13.88;67.67
68439;SHT31;55421;51.600;5.718;2022-09-21T19:11:42;13.90;67.30
68439;SHT31;55421;51.600;5.718;2022-09-21T19:18:00;13.80;67.98
68439;SHT31;55421;51.600;5.718;2022-09-21T19:21:04;13.70;68.30
68439;SHT31;55421;51.600;5.718;2022-09-21T19:23:51;13.62;68.62
68439;SHT31;55421;51.600;5.718;2022-09-21T19:32:48;13.53;69.10
68439;SHT31;55421;51.600;5.718;2022-09-21T19:35:23;13.53;69.02
68439;SHT31;55421;51.600;5.718;2022-09-21T19:37:52;13.55;68.91
68439;SHT31;55421;51.600;5.718;2022-09-21T19:40:25;13.53;68.85
68439;SHT31;55421;51.600;5.718;2022-09-21T19:48:40;13.32;69.83
68439;SHT31;55421;51.600;5.718;2022-09-21T19:51:32;13.25;70.08
68439;SHT31;55421;51.600;5.718;2022-09-21T19:54:12;13.21;70.09
68439;SHT31;55421;51.600;5.718;2022-09-21T19:57:10;13.23;70.05
68439;SHT31;55421;51.600;5.718;2022-09-21T19:59:59;13.26;70.00
68439;SHT31;55421;51.600;5.718;2022-09-21T20:02:35;13.26;70.07
68439;SHT31;55421;51.600;5.718;2022-09-21T20:05:17;13.25;70.21
68439;SHT31;55421;51.600;5.718;2022-09-21T20:08:00;13.22;70.29